sensor_id;sensor_type;location;lat;lon;timestamp;temperature;humidity
59282;DHT22;45054;52.062;10.010;2023-06-19T00:01:50;20.40;99.90
59282;DHT22;45054;52.062;10.010;2023-06-19T00:04:15;20.30;99.90
59282;DHT22;45054;52.062;10.010;2023-06-19T00:06:43;20.40;99.90
59282;DHT22;45054;52.062;10.010;2023-06-19T00:09:09;20.40;99.90
59282;DHT22;45054;52.062;10.010;2023-06-19T00:11:34;20.40;99.90
59282;DHT22;45054;52.062;10.010;2023-06-19T00:14:01;20.30;99.90
59282;DHT22;45054;52.062;10.010;2023-06-19T00:16:26;20.30;99.90
59282;DHT22;45054;52.062;10.010;2023-06-19T00:18:52;20.20;99.90
59282;DHT22;45054;52.062;10.010;2023-06-19T00:21:18;20.30;99.90
59282;DHT22;45054;52.062;10.010;2023-06-19T00:23:46;20.30;99.90
59282;DHT22;45054;52.062;10.010;2023-06-19T00:26:12;20.20;99.90
59282;DHT22;45054;52.062;10.010;2023-06-19T00:28:38;20.30;99.90
59282;DHT22;45054;52.062;10.010;2023-06-19T00:31:04;20.30;99.90
59282;DHT22;45054;52.062;10.010;2023-06-19T00:33:29;20.20;99.90
59282;DHT22;45054;52.062;10.010;2023-06-19T00:35:55;20.20;99.90
59282;DHT22;45054;52.062;10.010;2023-06-19T00:38:21;20.10;99.90
59282;DHT22;45054;52.062;10.010;2023-06-19T00:40:49;20.10;99.90
59282;DHT22;45054;52.062;10.010;2023-06-19T00:43:15;20.10;99.90
59282;DHT22;45054;52.062;10.010;2023-06-19T00:45:41;20.10;99.90
59282;DHT22;45054;52.062;10.010;2023-06-19T00:48:07;20.10;99.90
59282;DHT22;45054;52.062;10.010;2023-06-19T00:50:34;20.10;99.90
59282;DHT22;45054;52.062;10.010;2023-06-19T00:53:00;20.00;99.90
59282;DHT22;45054;52.062;10.010;2023-06-19T00:55:27;20.00;99.90
59282;DHT22;45054;52.062;10.010;2023-06-19T00:57:55;20.10;99.90
59282;DHT22;45054;52.062;10.010;2023-06-19T01:00:21;20.10;99.90
59282;DHT22;45054;52.062;10.010;2023-06-19T01:02:47;20.10;99.90
59282;DHT22;45054;52.062;10.010;2023-06-19T01:05:13;19.90;99.90
59282;DHT22;45054;52.062;10.010;2023-06-19T01:07:41;19.90;99.90
59282;DHT22;45054;52.062;10.010;2023-06-19T01:10:09;19.90;99.90
59282;DHT22;45054;52.062;10.010;2023-06-19T01:12:37;19.90;99.90
59282;DHT22;45054;52.062;10.010;2023-06-19T01:15:06;19.80;99.90
59282;DHT22;45054;52.062;10.010;2023-06-19T01:17:33;19.80;99.90
59282;DHT22;45054;52.062;10.010;2023-06-19T01:20:00;19.80;99.90
59282;DHT22;45054;52.062;10.010;2023-06-19T01:22:28;19.70;99.90
59282;DHT22;45054;52.062;10.010;2023-06-19T01:24:54;19.60;99.90
59282;DHT22;45054;52.062;10.010;2023-06-19T01:27:19;19.60;99.90
59282;DHT22;45054;52.062;10.010;2023-06-19T01:29:45;19.60;99.90
59282;DHT22;45054;52.062;10.010;2023-06-19T01:32:12;19.50;99.90
59282;DHT22;45054;52.062;10.010;2023-06-19T01:34:39;19.50;99.90
59282;DHT22;45054;52.062;10.010;2023-06-19T01:37:05;19.50;99.90
59282;DHT22;45054;52.062;10.010;2023-06-19T01:39:34;19.40;99.90
59282;DHT22;45054;52.062;10.010;2023-06-19T01:42:00;19.40;99.90
59282;DHT22;45054;52.062;10.010;2023-06-19T01:44:26;19.40;99.90
59282;DHT22;45054;52.062;10.010;2023-06-19T01:46:52;19.30;99.90
59282;DHT22;45054;52.062;10.010;2023-06-19T01:49:18;19.20;99.90
59282;DHT22;45054;52.062;10.010;2023-06-19T01:51:44;19.10;99.90
59282;DHT22;45054;52.062;10.010;2023-06-19T01:54:10;19.20;99.90
59282;DHT22;45054;52.062;10.010;2023-06-19T01:56:38;19.20;99.90
59282;DHT22;45054;52.062;10.010;2023-06-19T01:59:04;19.20;99.90
59282;DHT22;45054;52.062;10.010;2023-06-19T02:01:31;19.20;99.90
59282;DHT22;45054;52.062;10.010;2023-06-19T02:03:56;19.10;99.90
59282;DHT22;45054;52.062;10.010;2023-06-19T02:06:22;19.10;99.90
59282;DHT22;45054;52.062;10.010;2023-06-19T02:08:48;19.10;99.90
59282;DHT22;45054;52.062;10.010;2023-06-19T02:11:13;19.00;99.90
59282;DHT22;45054;52.062;10.010;2023-06-19T02:13:41;19.00;99.90
59282;DHT22;45054;52.062;10.010;2023-06-19T02:16:07;19.00;99.90
59282;DHT22;45054;52.062;10.010;2023-06-19T02:18:33;19.00;99.90
59282;DHT22;45054;52.062;10.010;2023-06-19T02:20:59;18.90;99.90
59282;DHT22;45054;52.062;10.010;2023-06-19T02:23:25;18.90;99.90
59282;DHT22;45054;52.062;10.010;2023-06-19T02:25:51;19.00;99.90
59282;DHT22;45054;52.062;10.010;2023-06-19T02:28:17;18.90;99.90
59282;DHT22;45054;52.062;10.010;2023-06-19T02:30:45;19.00;99.90
59282;DHT22;45054;52.062;10.010;2023-06-19T02:33:11;19.00;99.90
59282;DHT22;45054;52.062;10.010;2023-06-19T02:35:37;19.10;99.90
59282;DHT22;45054;52.062;10.010;2023-06-19T02:38:03;19.10;99.90
59282;DHT22;45054;52.062;10.010;2023-06-19T02:40:29;19.20;99.90
59282;DHT22;45054;52.062;10.010;2023-06-19T02:42:55;19.10;99.90
59282;DHT22;45054;52.062;10.010;2023-06-19T02:45:21;19.10;99.90
59282;DHT22;45054;52.062;10.010;2023-06-19T02:47:48;19.20;99.90
59282;DHT22;45054;52.062;10.010;2023-06-19T02:50:14;19.10;99.90
59282;DHT22;45054;52.062;10.010;2023-06-19T02:52:39;19.10;99.90
59282;DHT22;45054;52.062;10.010;2023-06-19T02:55:05;19.00;99.90
59282;DHT22;45054;52.062;10.010;2023-06-19T02:57:31;18.90;99.90
59282;DHT22;45054;52.062;10.010;2023-06-19T02:59:57;18.80;99.90
59282;DHT22;45054;52.062;10.010;2023-06-19T03:02:23;18.70;99.90
59282;DHT22;45054;52.062;10.010;2023-06-19T03:04:51;18.80;99.90
59282;DHT22;45054;52.062;10.010;2023-06-19T03:07:17;18.80;99.90
59282;DHT22;45054;52.062;10.010;2023-06-19T03:09:43;18.80;99.90
59282;DHT22;45054;52.062;10.010;2023-06-19T03:12:09;18.80;99.90
59282;DHT22;45054;52.062;10.010;2023-06-19T03:14:35;18.80;99.90
59282;DHT22;45054;52.062;10.010;2023-06-19T03:17:01;18.90;99.90
59282;DHT22;45054;52.062;10.010;2023-06-19T03:19:27;18.90;99.90
59282;DHT22;45054;52.062;10.010;2023-06-19T03:21:55;19.00;99.90
59282;DHT22;45054;52.062;10.010;2023-06-19T03:24:21;19.00;99.90
59282;DHT22;45054;52.062;10.010;2023-06-19T03:26:47;19.10;99.90
59282;DHT22;45054;52.062;10.010;2023-06-19T03:29:12;19.10;99.90
59282;DHT22;45054;52.062;10.010;2023-06-19T03:31:38;19.10;99.90
59282;DHT22;45054;52.062;10.010;2023-06-19T03:34:05;19.20;99.90
59282;DHT22;45054;52.062;10.010;2023-06-19T03:36:30;19.30;99.90
59282;DHT22;45054;52.062;10.010;2023-06-19T03:38:58;19.30;99.90
59282;DHT22;45054;52.062;10.010;2023-06-19T03:41:23;19.40;99.90
59282;DHT22;45054;52.062;10.010;2023-06-19T03:43:49;19.40;99.90
59282;DHT22;45054;52.062;10.010;2023-06-19T03:46:15;19.50;99.90
59282;DHT22;45054;52.062;10.010;2023-06-19T03:48:41;19.50;99.90
59282;DHT22;45054;52.062;10.010;2023-06-19T03:51:07;19.60;99.90
59282;DHT22;45054;52.062;10.010;2023-06-19T03:53:33;19.60;99.90
59282;DHT22;45054;52.062;10.010;2023-06-19T03:56:00;19.60;99.90
59282;DHT22;45054;52.062;10.010;2023-06-19T03:58:26;19.70;99.90
59282;DHT22;45054;52.062;10.010;2023-06-19T04:00:52;19.70;99.90
59282;DHT22;45054;52.062;10.010;2023-06-19T04:03:18;19.70;99.90
59282;DHT22;45054;52.062;10.010;2023-06-19T04:05:44;19.70;99.90
59282;DHT22;45054;52.062;10.010;2023-06-19T04:08:09;19.70;99.90
59282;DHT22;45054;52.062;10.010;2023-06-19T04:10:35;19.70;99.90
59282;DHT22;45054;52.062;10.010;2023-06-19T04:13:02;19.70;99.90
59282;DHT22;45054;52.062;10.010;2023-06-19T04:15:28;19.60;99.90
59282;DHT22;45054;52.062;10.010;2023-06-19T04:17:54;19.60;99.90
59282;DHT22;45054;52.062;10.010;2023-06-19T04:20:20;19.50;99.90
59282;DHT22;45054;52.062;10.010;2023-06-19T04:22:46;19.50;99.90
59282;DHT22;45054;52.062;10.010;2023-06-19T04:25:12;19.50;99.90
59282;DHT22;45054;52.062;10.010;2023-06-19T04:27:38;19.50;99.90
59282;DHT22;45054;52.062;10.010;2023-06-19T04:30:07;19.40;99.90
59282;DHT22;45054;52.062;10.010;2023-06-19T04:32:33;19.20;99.90
59282;DHT22;45054;52.062;10.010;2023-06-19T04:34:59;19.10;99.90
59282;DHT22;45054;52.062;10.010;2023-06-19T04:37:25;19.10;99.90
59282;DHT22;45054;52.062;10.010;2023-06-19T04:39:51;19.10;99.90
59282;DHT22;45054;52.062;10.010;2023-06-19T04:42:17;19.10;99.90
59282;DHT22;45054;52.062;10.010;2023-06-19T04:44:43;19.10;99.90
59282;DHT22;45054;52.062;10.010;2023-06-19T04:47:10;19.10;99.90
59282;DHT22;45054;52.062;10.010;2023-06-19T04:49:36;19.00;99.90
59282;DHT22;45054;52.062;10.010;2023-06-19T04:52:02;18.90;99.90
59282;DHT22;45054;52.062;10.010;2023-06-19T04:54:28;18.90;99.90
59282;DHT22;45054;52.062;10.010;2023-06-19T04:56:53;19.00;99.90
59282;DHT22;45054;52.062;10.010;2023-06-19T04:59:19;19.00;99.90
59282;DHT22;45054;52.062;10.010;2023-06-19T05:01:44;19.00;99.90
59282;DHT22;45054;52.062;10.010;2023-06-19T05:04:12;19.00;99.90
59282;DHT22;45054;52.062;10.010;2023-06-19T05:06:37;18.90;99.90
59282;DHT22;45054;52.062;10.010;2023-06-19T05:09:03;18.90;99.90
59282;DHT22;45054;52.062;10.010;2023-06-19T05:11:29;19.00;99.90
59282;DHT22;45054;52.062;10.010;2023-06-19T05:13:55;19.10;99.90
59282;DHT22;45054;52.062;10.010;2023-06-19T05:16:21;19.10;99.90
59282;DHT22;45054;52.062;10.010;2023-06-19T05:18:47;19.20;99.90
59282;DHT22;45054;52.062;10.010;2023-06-19T05:21:14;19.20;99.90
59282;DHT22;45054;52.062;10.010;2023-06-19T05:23:40;19.10;99.90
59282;DHT22;45054;52.062;10.010;2023-06-19T05:26:06;19.20;99.90
59282;DHT22;45054;52.062;10.010;2023-06-19T05:28:31;19.20;99.90
59282;DHT22;45054;52.062;10.010;2023-06-19T05:30:58;19.20;99.90
59282;DHT22;45054;52.062;10.010;2023-06-19T05:33:23;19.20;99.90
59282;DHT22;45054;52.062;10.010;2023-06-19T05:35:49;19.30;99.90
59282;DHT22;45054;52.062;10.010;2023-06-19T05:38:17;19.30;99.90
59282;DHT22;45054;52.062;10.010;2023-06-19T05:40:43;19.40;99.90
59282;DHT22;45054;52.062;10.010;2023-06-19T05:43:09;19.40;99.90
59282;DHT22;45054;52.062;10.010;2023-06-19T05:45:35;19.50;99.90
59282;DHT22;45054;52.062;10.010;2023-06-19T05:48:01;19.50;99.90
59282;DHT22;45054;52.062;10.010;2023-06-19T05:50:27;19.60;99.90
59282;DHT22;45054;52.062;10.010;2023-06-19T05:52:53;19.60;99.90
59282;DHT22;45054;52.062;10.010;2023-06-19T05:55:20;19.70;99.90
59282;DHT22;45054;52.062;10.010;2023-06-19T05:57:46;19.70;99.90
59282;DHT22;45054;52.062;10.010;2023-06-19T06:00:12;19.80;99.90
59282;DHT22;45054;52.062;10.010;2023-06-19T06:02:38;19.80;99.90
59282;DHT22;45054;52.062;10.010;2023-06-19T06:05:04;19.80;99.90
59282;DHT22;45054;52.062;10.010;2023-06-19T06:07:30;19.90;99.90
59282;DHT22;45054;52.062;10.010;2023-06-19T06:09:56;19.90;99.90
59282;DHT22;45054;52.062;10.010;2023-06-19T06:12:23;20.00;99.90
59282;DHT22;45054;52.062;10.010;2023-06-19T06:14:49;20.00;99.90
59282;DHT22;45054;52.062;10.010;2023-06-19T06:17:14;20.00;99.90
59282;DHT22;45054;52.062;10.010;2023-06-19T06:19:40;20.10;99.90
59282;DHT22;45054;52.062;10.010;2023-06-19T06:22:06;20.20;99.90
59282;DHT22;45054;52.062;10.010;2023-06-19T06:24:32;20.30;99.90
59282;DHT22;45054;52.062;10.010;2023-06-19T06:26:57;20.20;99.90
59282;DHT22;45054;52.062;10.010;2023-06-19T06:29:25;20.20;99.90
59282;DHT22;45054;52.062;10.010;2023-06-19T06:31:51;20.20;99.90
59282;DHT22;45054;52.062;10.010;2023-06-19T06:34:17;20.00;99.90
59282;DHT22;45054;52.062;10.010;2023-06-19T06:36:43;20.00;99.90
59282;DHT22;45054;52.062;10.010;2023-06-19T06:39:08;20.00;99.90
59282;DHT22;45054;52.062;10.010;2023-06-19T06:41:34;20.00;99.90
59282;DHT22;45054;52.062;10.010;2023-06-19T06:44:00;20.10;99.90
59282;DHT22;45054;52.062;10.010;2023-06-19T06:46:28;20.10;99.90
59282;DHT22;45054;52.062;10.010;2023-06-19T06:48:54;20.20;99.90
59282;DHT22;45054;52.062;10.010;2023-06-19T06:51:20;20.20;99.90
59282;DHT22;45054;52.062;10.010;2023-06-19T06:53:46;20.20;99.90
59282;DHT22;45054;52.062;10.010;2023-06-19T06:56:11;20.20;99.90
59282;DHT22;45054;52.062;10.010;2023-06-19T06:58:37;20.30;99.90
59282;DHT22;45054;52.062;10.010;2023-06-19T07:01:03;20.40;99.90
59282;DHT22;45054;52.062;10.010;2023-06-19T07:03:30;20.50;99.90
59282;DHT22;45054;52.062;10.010;2023-06-19T07:05:56;20.60;99.90
59282;DHT22;45054;52.062;10.010;2023-06-19T07:08:24;20.60;99.90
59282;DHT22;45054;52.062;10.010;2023-06-19T07:10:50;20.60;99.90
59282;DHT22;45054;52.062;10.010;2023-06-19T07:13:16;20.70;99.90
59282;DHT22;45054;52.062;10.010;2023-06-19T07:15:41;20.70;99.90
59282;DHT22;45054;52.062;10.010;2023-06-19T07:18:07;20.70;99.90
59282;DHT22;45054;52.062;10.010;2023-06-19T07:20:35;20.70;99.90
59282;DHT22;45054;52.062;10.010;2023-06-19T07:23:01;20.70;99.90
59282;DHT22;45054;52.062;10.010;2023-06-19T07:25:27;20.80;99.90
59282;DHT22;45054;52.062;10.010;2023-06-19T07:27:52;20.90;99.90
59282;DHT22;45054;52.062;10.010;2023-06-19T07:30:18;21.00;99.90
59282;DHT22;45054;52.062;10.010;2023-06-19T07:32:44;21.00;99.90
59282;DHT22;45054;52.062;10.010;2023-06-19T07:35:10;21.10;99.90
59282;DHT22;45054;52.062;10.010;2023-06-19T07:37:38;21.10;99.90
59282;DHT22;45054;52.062;10.010;2023-06-19T07:40:04;21.10;99.90
59282;DHT22;45054;52.062;10.010;2023-06-19T07:42:31;21.20;99.90
59282;DHT22;45054;52.062;10.010;2023-06-19T07:44:57;21.40;99.90
59282;DHT22;45054;52.062;10.010;2023-06-19T07:47:23;21.40;99.90
59282;DHT22;45054;52.062;10.010;2023-06-19T07:49:49;21.60;99.90
59282;DHT22;45054;52.062;10.010;2023-06-19T07:52:15;21.70;99.90
59282;DHT22;45054;52.062;10.010;2023-06-19T07:54:54;21.70;99.90
59282;DHT22;45054;52.062;10.010;2023-06-19T07:57:21;21.70;99.90
59282;DHT22;45054;52.062;10.010;2023-06-19T07:59:46;21.70;99.90
59282;DHT22;45054;52.062;10.010;2023-06-19T08:02:12;21.70;99.90
59282;DHT22;45054;52.062;10.010;2023-06-19T08:04:38;21.80;99.90
59282;DHT22;45054;52.062;10.010;2023-06-19T08:07:05;21.90;99.90
59282;DHT22;45054;52.062;10.010;2023-06-19T08:09:31;22.00;99.90
59282;DHT22;45054;52.062;10.010;2023-06-19T08:11:58;22.10;99.90
59282;DHT22;45054;52.062;10.010;2023-06-19T08:14:24;22.30;99.90
59282;DHT22;45054;52.062;10.010;2023-06-19T08:16:50;22.50;99.90
59282;DHT22;45054;52.062;10.010;2023-06-19T08:19:16;22.60;99.90
59282;DHT22;45054;52.062;10.010;2023-06-19T08:21:41;22.70;99.90
59282;DHT22;45054;52.062;10.010;2023-06-19T08:24:07;22.90;99.90
59282;DHT22;45054;52.062;10.010;2023-06-19T08:26:33;22.90;99.90
59282;DHT22;45054;52.062;10.010;2023-06-19T08:29:01;23.10;99.90
59282;DHT22;45054;52.062;10.010;2023-06-19T08:31:27;23.10;99.90
59282;DHT22;45054;52.062;10.010;2023-06-19T08:33:52;23.30;99.90
59282;DHT22;45054;52.062;10.010;2023-06-19T08:36:18;23.40;99.90
59282;DHT22;45054;52.062;10.010;2023-06-19T08:38:44;23.40;99.90
59282;DHT22;45054;52.062;10.010;2023-06-19T08:41:10;23.50;99.90
59282;DHT22;45054;52.062;10.010;2023-06-19T08:43:35;23.60;99.90
59282;DHT22;45054;52.062;10.010;2023-06-19T08:46:06;23.70;99.90
59282;DHT22;45054;52.062;10.010;2023-06-19T08:48:34;23.80;99.90
59282;DHT22;45054;52.062;10.010;2023-06-19T08:51:00;23.90;99.90
59282;DHT22;45054;52.062;10.010;2023-06-19T08:53:26;24.00;99.90
59282;DHT22;45054;52.062;10.010;2023-06-19T08:55:52;24.00;99.90
59282;DHT22;45054;52.062;10.010;2023-06-19T08:58:21;24.10;99.90
59282;DHT22;45054;52.062;10.010;2023-06-19T09:00:47;24.10;99.90
59282;DHT22;45054;52.062;10.010;2023-06-19T09:03:19;24.20;99.90
59282;DHT22;45054;52.062;10.010;2023-06-19T09:05:44;24.20;99.90
59282;DHT22;45054;52.062;10.010;2023-06-19T09:08:12;24.20;99.90
59282;DHT22;45054;52.062;10.010;2023-06-19T09:10:38;24.30;99.90
59282;DHT22;45054;52.062;10.010;2023-06-19T09:13:04;24.40;99.90
59282;DHT22;45054;52.062;10.010;2023-06-19T09:15:31;24.50;99.90
59282;DHT22;45054;52.062;10.010;2023-06-19T09:18:03;24.50;99.90
59282;DHT22;45054;52.062;10.010;2023-06-19T09:20:31;24.70;99.90
59282;DHT22;45054;52.062;10.010;2023-06-19T09:22:56;24.80;99.90
59282;DHT22;45054;52.062;10.010;2023-06-19T09:25:23;24.90;99.90
59282;DHT22;45054;52.062;10.010;2023-06-19T09:27:48;25.10;99.90
59282;DHT22;45054;52.062;10.010;2023-06-19T09:30:15;25.10;99.90
59282;DHT22;45054;52.062;10.010;2023-06-19T09:32:40;25.10;99.90
59282;DHT22;45054;52.062;10.010;2023-06-19T09:35:06;25.20;99.90
59282;DHT22;45054;52.062;10.010;2023-06-19T09:37:34;25.20;99.90
59282;DHT22;45054;52.062;10.010;2023-06-19T09:40:01;25.20;99.90
59282;DHT22;45054;52.062;10.010;2023-06-19T09:42:29;25.30;99.90
59282;DHT22;45054;52.062;10.010;2023-06-19T09:44:57;25.30;99.90
59282;DHT22;45054;52.062;10.010;2023-06-19T09:47:24;25.30;99.90
59282;DHT22;45054;52.062;10.010;2023-06-19T09:49:53;25.40;99.90
59282;DHT22;45054;52.062;10.010;2023-06-19T09:52:19;25.40;99.90
59282;DHT22;45054;52.062;10.010;2023-06-19T09:54:47;25.50;99.90
59282;DHT22;45054;52.062;10.010;2023-06-19T09:57:13;25.30;99.90
59282;DHT22;45054;52.062;10.010;2023-06-19T09:59:39;25.30;99.90
59282;DHT22;45054;52.062;10.010;2023-06-19T10:02:05;25.30;99.90
59282;DHT22;45054;52.062;10.010;2023-06-19T10:04:41;25.30;99.90
59282;DHT22;45054;52.062;10.010;2023-06-19T10:07:14;25.20;99.90
59282;DHT22;45054;52.062;10.010;2023-06-19T10:09:40;25.20;99.90
59282;DHT22;45054;52.062;10.010;2023-06-19T10:12:13;25.30;99.90
59282;DHT22;45054;52.062;10.010;2023-06-19T10:14:46;25.40;99.90
59282;DHT22;45054;52.062;10.010;2023-06-19T10:17:12;25.50;99.90
59282;DHT22;45054;52.062;10.010;2023-06-19T10:19:38;25.40;99.90
59282;DHT22;45054;52.062;10.010;2023-06-19T10:22:19;25.30;99.90
59282;DHT22;45054;52.062;10.010;2023-06-19T10:24:48;25.30;99.90
59282;DHT22;45054;52.062;10.010;2023-06-19T10:27:19;25.40;99.90
59282;DHT22;45054;52.062;10.010;2023-06-19T10:29:51;25.30;99.90
59282;DHT22;45054;52.062;10.010;2023-06-19T10:32:17;25.30;99.90
59282;DHT22;45054;52.062;10.010;2023-06-19T10:34:44;25.10;99.90
59282;DHT22;45054;52.062;10.010;2023-06-19T10:37:10;25.20;99.90
59282;DHT22;45054;52.062;10.010;2023-06-19T10:39:36;25.20;99.90
59282;DHT22;45054;52.062;10.010;2023-06-19T10:42:05;25.30;99.90
59282;DHT22;45054;52.062;10.010;2023-06-19T10:44:32;25.30;99.90
59282;DHT22;45054;52.062;10.010;2023-06-19T10:46:58;25.40;99.90
59282;DHT22;45054;52.062;10.010;2023-06-19T10:49:24;25.50;99.90
59282;DHT22;45054;52.062;10.010;2023-06-19T10:51:49;25.50;99.90
59282;DHT22;45054;52.062;10.010;2023-06-19T10:54:16;25.60;99.90
59282;DHT22;45054;52.062;10.010;2023-06-19T10:56:41;25.70;99.90
59282;DHT22;45054;52.062;10.010;2023-06-19T10:59:08;25.70;99.90
59282;DHT22;45054;52.062;10.010;2023-06-19T11:01:36;25.50;99.90
59282;DHT22;45054;52.062;10.010;2023-06-19T11:04:03;25.50;99.90
59282;DHT22;45054;52.062;10.010;2023-06-19T11:06:29;25.50;99.90
59282;DHT22;45054;52.062;10.010;2023-06-19T11:08:55;25.50;99.90
59282;DHT22;45054;52.062;10.010;2023-06-19T11:11:21;25.50;99.90
59282;DHT22;45054;52.062;10.010;2023-06-19T11:13:46;25.50;99.90
59282;DHT22;45054;52.062;10.010;2023-06-19T11:16:14;25.50;99.90
59282;DHT22;45054;52.062;10.010;2023-06-19T11:18:41;25.60;99.90
59282;DHT22;45054;52.062;10.010;2023-06-19T11:21:07;25.60;99.90
59282;DHT22;45054;52.062;10.010;2023-06-19T11:23:33;25.60;99.90
59282;DHT22;45054;52.062;10.010;2023-06-19T11:26:02;25.80;99.90
59282;DHT22;45054;52.062;10.010;2023-06-19T11:28:28;25.80;99.90
59282;DHT22;45054;52.062;10.010;2023-06-19T11:30:57;25.90;99.90
59282;DHT22;45054;52.062;10.010;2023-06-19T11:33:23;26.10;99.90
59282;DHT22;45054;52.062;10.010;2023-06-19T11:35:51;26.20;99.90
59282;DHT22;45054;52.062;10.010;2023-06-19T11:38:18;26.10;99.90
59282;DHT22;45054;52.062;10.010;2023-06-19T11:40:44;26.20;99.90
59282;DHT22;45054;52.062;10.010;2023-06-19T11:43:10;26.30;99.90
59282;DHT22;45054;52.062;10.010;2023-06-19T11:45:44;26.30;99.90
59282;DHT22;45054;52.062;10.010;2023-06-19T11:48:10;26.20;99.90
59282;DHT22;45054;52.062;10.010;2023-06-19T11:50:35;26.30;99.90
59282;DHT22;45054;52.062;10.010;2023-06-19T11:53:03;26.30;99.90
59282;DHT22;45054;52.062;10.010;2023-06-19T11:55:28;26.40;99.90
59282;DHT22;45054;52.062;10.010;2023-06-19T11:57:54;26.50;99.90
59282;DHT22;45054;52.062;10.010;2023-06-19T12:00:20;26.50;99.90
59282;DHT22;45054;52.062;10.010;2023-06-19T12:02:46;26.50;99.90
59282;DHT22;45054;52.062;10.010;2023-06-19T12:05:12;26.20;99.90
59282;DHT22;45054;52.062;10.010;2023-06-19T12:07:38;26.30;99.90
59282;DHT22;45054;52.062;10.010;2023-06-19T12:10:06;26.30;99.90
59282;DHT22;45054;52.062;10.010;2023-06-19T12:12:32;26.40;99.90
59282;DHT22;45054;52.062;10.010;2023-06-19T12:14:58;26.50;99.90
59282;DHT22;45054;52.062;10.010;2023-06-19T12:17:23;26.50;99.90
59282;DHT22;45054;52.062;10.010;2023-06-19T12:19:49;26.60;99.90
59282;DHT22;45054;52.062;10.010;2023-06-19T12:22:15;26.60;99.90
59282;DHT22;45054;52.062;10.010;2023-06-19T12:24:41;26.70;99.90
59282;DHT22;45054;52.062;10.010;2023-06-19T12:27:09;26.70;99.90
59282;DHT22;45054;52.062;10.010;2023-06-19T12:29:34;26.60;99.90
59282;DHT22;45054;52.062;10.010;2023-06-19T12:32:00;26.60;99.90
59282;DHT22;45054;52.062;10.010;2023-06-19T12:34:26;26.70;99.90
59282;DHT22;45054;52.062;10.010;2023-06-19T12:36:52;27.00;99.90
59282;DHT22;45054;52.062;10.010;2023-06-19T12:39:18;27.10;99.90
59282;DHT22;45054;52.062;10.010;2023-06-19T12:41:44;27.00;99.90
59282;DHT22;45054;52.062;10.010;2023-06-19T12:44:12;27.10;99.90
59282;DHT22;45054;52.062;10.010;2023-06-19T12:46:38;27.20;99.90
59282;DHT22;45054;52.062;10.010;2023-06-19T12:49:04;27.40;99.90
59282;DHT22;45054;52.062;10.010;2023-06-19T12:51:29;27.50;99.90
59282;DHT22;45054;52.062;10.010;2023-06-19T12:53:55;27.60;99.90
59282;DHT22;45054;52.062;10.010;2023-06-19T12:56:21;27.40;99.90
59282;DHT22;45054;52.062;10.010;2023-06-19T12:58:47;27.50;99.90
59282;DHT22;45054;52.062;10.010;2023-06-19T13:01:14;27.40;99.90
59282;DHT22;45054;52.062;10.010;2023-06-19T13:03:40;27.30;99.90
59282;DHT22;45054;52.062;10.010;2023-06-19T13:06:05;27.40;99.90
59282;DHT22;45054;52.062;10.010;2023-06-19T13:08:31;27.60;99.90
59282;DHT22;45054;52.062;10.010;2023-06-19T13:10:57;27.70;99.90
59282;DHT22;45054;52.062;10.010;2023-06-19T13:13:23;27.80;99.90
59282;DHT22;45054;52.062;10.010;2023-06-19T13:15:49;27.80;99.90
59282;DHT22;45054;52.062;10.010;2023-06-19T13:18:17;27.80;99.90
59282;DHT22;45054;52.062;10.010;2023-06-19T13:20:43;27.90;99.90
59282;DHT22;45054;52.062;10.010;2023-06-19T13:23:09;27.90;99.90
59282;DHT22;45054;52.062;10.010;2023-06-19T13:25:35;27.80;99.90
59282;DHT22;45054;52.062;10.010;2023-06-19T13:28:01;27.80;99.90
59282;DHT22;45054;52.062;10.010;2023-06-19T13:30:27;27.70;99.90
59282;DHT22;45054;52.062;10.010;2023-06-19T13:32:52;27.80;99.90
59282;DHT22;45054;52.062;10.010;2023-06-19T13:35:20;28.00;99.90
59282;DHT22;45054;52.062;10.010;2023-06-19T13:37:46;28.10;99.90
59282;DHT22;45054;52.062;10.010;2023-06-19T13:40:11;28.20;99.90
59282;DHT22;45054;52.062;10.010;2023-06-19T13:42:37;27.90;99.90
59282;DHT22;45054;52.062;10.010;2023-06-19T13:45:04;27.90;99.90
59282;DHT22;45054;52.062;10.010;2023-06-19T13:47:30;28.00;99.90
59282;DHT22;45054;52.062;10.010;2023-06-19T13:49:55;27.90;99.90
59282;DHT22;45054;52.062;10.010;2023-06-19T13:52:23;27.90;99.90
59282;DHT22;45054;52.062;10.010;2023-06-19T13:54:49;27.80;99.90
59282;DHT22;45054;52.062;10.010;2023-06-19T13:57:15;27.90;99.90
59282;DHT22;45054;52.062;10.010;2023-06-19T13:59:41;28.10;99.90
59282;DHT22;45054;52.062;10.010;2023-06-19T14:02:07;28.10;99.90
59282;DHT22;45054;52.062;10.010;2023-06-19T14:04:33;28.10;99.90
59282;DHT22;45054;52.062;10.010;2023-06-19T14:06:58;27.90;99.90
59282;DHT22;45054;52.062;10.010;2023-06-19T14:09:25;27.80;99.90
59282;DHT22;45054;52.062;10.010;2023-06-19T14:11:51;27.70;99.90
59282;DHT22;45054;52.062;10.010;2023-06-19T14:14:17;27.60;99.90
59282;DHT22;45054;52.062;10.010;2023-06-19T14:16:43;27.40;99.90
59282;DHT22;45054;52.062;10.010;2023-06-19T14:19:09;27.10;99.90
59282;DHT22;45054;52.062;10.010;2023-06-19T14:21:35;27.00;99.90
59282;DHT22;45054;52.062;10.010;2023-06-19T14:24:01;27.10;99.90
59282;DHT22;45054;52.062;10.010;2023-06-19T14:26:29;27.40;99.90
59282;DHT22;45054;52.062;10.010;2023-06-19T14:28:55;27.40;99.90
59282;DHT22;45054;52.062;10.010;2023-06-19T14:31:21;27.30;99.90
59282;DHT22;45054;52.062;10.010;2023-06-19T14:33:47;27.50;99.90
59282;DHT22;45054;52.062;10.010;2023-06-19T14:36:13;27.60;99.90
59282;DHT22;45054;52.062;10.010;2023-06-19T14:38:39;27.60;99.90
59282;DHT22;45054;52.062;10.010;2023-06-19T14:41:05;27.60;99.90
59282;DHT22;45054;52.062;10.010;2023-06-19T14:43:32;27.50;99.90
59282;DHT22;45054;52.062;10.010;2023-06-19T14:45:58;27.40;99.90
59282;DHT22;45054;52.062;10.010;2023-06-19T14:48:24;27.50;99.90
59282;DHT22;45054;52.062;10.010;2023-06-19T14:50:50;27.50;99.90
59282;DHT22;45054;52.062;10.010;2023-06-19T14:53:16;27.60;99.90
59282;DHT22;45054;52.062;10.010;2023-06-19T14:55:41;27.40;99.90
59282;DHT22;45054;52.062;10.010;2023-06-19T14:58:07;27.40;99.90
59282;DHT22;45054;52.062;10.010;2023-06-19T15:00:35;27.40;99.90
59282;DHT22;45054;52.062;10.010;2023-06-19T15:03:01;27.30;99.90
59282;DHT22;45054;52.062;10.010;2023-06-19T15:05:26;27.20;99.90
59282;DHT22;45054;52.062;10.010;2023-06-19T15:07:52;27.20;99.90
59282;DHT22;45054;52.062;10.010;2023-06-19T15:10:18;27.20;99.90